Time;durP1;ratioP1;P1;durP2;ratioP2;P2;SDS_P1;SDS_P2;PMS_P1;PMS_P2;Temp;Humidity;BMP_temperature;BMP_pressure;BME280_temperature;BME280_humidity;BME280_pressure;Samples;Min_cycle;Max_cycle;Signal;HPM_P1;HPM_P2
2022/10/04 00:01:49;;;;;;;3.97;2.17;;;;;;;10.78;72.36;98815.13;4948228;29;21242;-80
2022/10/04 00:04:28;;;;;;;2.60;2.40;;;;;;;10.79;72.71;98863.69;4948987;29;21450;-82
2022/10/04 00:07:25;;;;;;;3.00;2.30;;;;;;;10.75;72.58;98820.41;4949277;29;20051;-83
2022/10/04 00:10:06;;;;;;;4.45;2.33;;;;;;;10.60;73.02;98784.38;4928677;29;20053;-82
2022/10/04 00:12:38;;;;;;;4.82;2.45;;;;;;;10.45;72.76;98770.00;4947960;29;20050;-81
2022/10/04 00:15:26;;;;;;;3.22;2.30;;;;;;;10.39;72.41;98799.63;4915944;29;20380;-81
2022/10/04 00:18:10;;;;;;;5.57;2.63;;;;;;;10.70;72.75;98817.09;4948988;29;20039;-81
2022/10/04 00:20:57;;;;;;;3.72;2.58;;;;;;;10.72;72.69;98830.88;4934652;29;20044;-80
2022/10/04 00:23:24;;;;;;;3.25;2.70;;;;;;;10.72;72.62;98827.44;4928117;29;20130;-81
2022/10/04 00:25:57;;;;;;;4.15;2.47;;;;;;;10.70;72.76;98856.94;4949014;29;20526;-80
2022/10/04 00:28:25;;;;;;;5.63;2.50;;;;;;;10.69;72.90;98851.81;4933138;29;20039;-81
2022/10/04 00:31:11;;;;;;;4.00;2.75;;;;;;;10.72;72.74;98828.28;4916362;29;20159;-82
2022/10/04 00:33:39;;;;;;;7.15;2.60;;;;;;;10.72;72.66;98833.47;4952874;28;20511;-82
2022/10/04 00:36:24;;;;;;;5.47;2.67;;;;;;;10.73;72.99;98836.97;4920946;29;20437;-82
2022/10/04 00:39:03;;;;;;;3.65;2.78;;;;;;;10.67;72.53;98841.41;4952080;29;20213;-80
2022/10/04 00:41:52;;;;;;;4.85;2.72;;;;;;;10.44;72.69;98809.91;4911556;29;20071;-83
2022/10/04 00:44:37;;;;;;;6.75;3.30;;;;;;;10.62;72.60;98840.66;4951134;29;20117;-81
2022/10/04 00:47:26;;;;;;;5.57;3.00;;;;;;;10.74;72.97;98873.34;4914731;29;20410;-80
2022/10/04 00:49:57;;;;;;;7.53;2.83;;;;;;;10.66;72.63;98836.25;4934192;29;20066;-82
2022/10/04 00:52:29;;;;;;;;;;;;;;;10.68;72.48;98850.09;4921543;29;20049;-82
2022/10/04 00:55:02;;;;;;;4.05;2.85;;;;;;;10.65;72.91;98856.19;4951971;29;19933;-80
2022/10/04 00:57:35;;;;;;;3.10;2.80;;;;;;;10.41;72.88;98821.25;4969765;29;20049;-81
2022/10/04 01:00:04;;;;;;;;;;;;;;;10.58;73.06;98839.06;4970470;29;20138;-80
2022/10/04 01:02:45;;;;;;;4.43;2.50;;;;;;;10.63;72.97;98851.94;4958543;29;19934;-78
2022/10/04 01:05:35;;;;;;;5.20;2.90;;;;;;;10.66;73.16;98857.06;4939621;29;20522;-81
2022/10/04 01:08:32;;;;;;;4.45;2.63;;;;;;;10.65;73.03;98861.41;4953977;29;20342;-81
2022/10/04 01:11:05;;;;;;;5.13;2.92;;;;;;;10.45;72.74;98825.50;4951653;29;20078;-82
2022/10/04 01:13:48;;;;;;;5.88;2.97;;;;;;;10.42;72.78;98832.47;4954753;29;20122;-81
2022/10/04 01:16:36;;;;;;;5.00;2.63;;;;;;;10.34;73.04;98830.91;4954956;29;20121;-81
2022/10/04 01:19:32;;;;;;;3.67;2.50;;;;;;;10.36;73.25;98844.75;4924917;29;20047;-80
2022/10/04 01:22:07;;;;;;;5.07;2.30;;;;;;;10.36;73.18;98864.66;4954707;29;20401;-80
2022/10/04 01:24:36;;;;;;;5.68;2.70;;;;;;;10.21;73.04;98838.13;4922658;29;20122;-81
2022/10/04 01:27:03;;;;;;;4.95;2.40;;;;;;;10.09;73.05;98831.47;4936950;29;20594;-81
2022/10/04 01:29:30;;;;;;;6.40;2.25;;;;;;;10.25;73.54;98857.97;4953990;29;20437;-80
2022/10/04 01:32:00;;;;;;;3.70;2.40;;;;;;;9.85;73.28;98822.44;4934480;29;20054;-80
2022/10/04 01:34:29;;;;;;;4.32;2.55;;;;;;;10.00;73.17;98862.84;4936835;29;20039;-81
2022/10/04 01:36:58;;;;;;;2.53;2.33;;;;;;;9.86;73.23;98860.53;4971071;29;20065;-80
2022/10/04 01:39:27;;;;;;;4.22;2.55;;;;;;;9.72;73.75;98855.63;4931749;29;20042;-81
2022/10/04 01:42:08;;;;;;;5.43;2.47;;;;;;;9.75;73.81;98862.50;4959438;29;20045;-80
2022/10/04 01:44:38;;;;;;;3.28;2.80;;;;;;;9.67;74.36;98861.81;4968586;28;20134;-80
2022/10/04 01:47:13;;;;;;;6.32;2.65;;;;;;;9.36;74.03;98823.47;4924451;29;20039;-82
2022/10/04 01:49:45;;;;;;;5.78;2.50;;;;;;;9.49;74.40;98866.47;4937184;29;20071;-82
2022/10/04 01:52:23;;;;;;;4.97;3.10;;;;;;;9.47;74.46;98863.94;4950694;29;20035;-81
2022/10/04 01:55:04;;;;;;;4.85;2.58;;;;;;;9.27;74.77;98848.72;4956155;29;20050;-80
2022/10/04 01:57:37;;;;;;;4.22;2.38;;;;;;;9.30;74.60;98852.97;4932842;29;20062;-82
2022/10/04 02:00:09;;;;;;;5.13;2.53;;;;;;;9.37;74.78;98890.09;4958875;29;20050;-81
2022/10/04 02:02:41;;;;;;;4.30;2.58;;;;;;;9.08;75.17;98834.38;4940681;29;20043;-81
2022/10/04 02:05:14;;;;;;;6.60;2.65;;;;;;;9.28;75.21;98866.00;4943684;29;20062;-81
2022/10/04 02:07:41;;;;;;;5.28;2.80;;;;;;;9.25;75.40;98873.84;4906417;29;20039;-82
2022/10/04 02:10:15;;;;;;;4.75;2.80;;;;;;;9.12;75.36;98865.41;4936572;29;20143;-80
2022/10/04 02:12:48;;;;;;;3.67;2.70;;;;;;;9.20;75.39;98886.03;4936044;29;20047;-82
2022/10/04 02:15:20;;;;;;;4.40;2.83;;;;;;;9.16;75.69;98879.19;4953748;29;20043;-82
2022/10/04 02:17:48;;;;;;;4.22;2.70;;;;;;;9.05;75.71;98866.41;4922284;29;20039;-82
2022/10/04 02:20:20;;;;;;;7.70;3.13;;;;;;;9.01;75.99;98849.19;4949283;29;20078;-80
2022/10/04 02:22:51;;;;;;;3.75;2.80;;;;;;;9.11;75.85;98881.03;4937827;29;20039;-81
2022/10/04 02:25:21;;;;;;;7.28;3.10;;;;;;;8.61;75.93;98795.41;4933815;29;20574;-84
2022/10/04 02:27:56;;;;;;;4.68;2.92;;;;;;;9.09;76.04;98875.00;4919370;29;20091;-80
2022/10/04 02:30:23;;;;;;;3.42;2.85;;;;;;;9.10;76.11;98876.72;4933723;29;20050;-81
2022/10/04 02:32:56;;;;;;;5.13;2.75;;;;;;;9.02;76.43;98885.50;4943014;29;20053;-81
2022/10/04 02:35:34;;;;;;;4.63;3.25;;;;;;;9.03;76.37;98882.00;4943475;29;20573;-82
2022/10/04 02:38:18;;;;;;;4.00;2.92;;;;;;;9.07;76.41;98884.56;4923283;29;20134;-82
2022/10/04 02:41:03;;;;;;;3.50;2.80;;;;;;;9.05;76.65;98879.38;4916935;29;20406;-82
2022/10/04 02:43:42;;;;;;;9.50;2.63;;;;;;;9.03;76.52;98887.19;4950817;29;20050;-80
2022/10/04 02:46:35;;;;;;;4.35;3.13;;;;;;;8.87;76.77;98863.25;4930464;29;20087;-80
2022/10/04 02:49:15;;;;;;;7.10;3.42;;;;;;;9.01;77.16;98906.28;4933575;29;20498;-82
2022/10/04 02:51:48;;;;;;;4.93;3.20;;;;;;;8.99;76.91;98890.72;4945491;29;20140;-81
2022/10/04 02:54:30;;;;;;;5.65;3.60;;;;;;;8.98;76.98;98891.59;4952943;29;20059;-83
2022/10/04 02:56:57;;;;;;;5.97;3.45;;;;;;;8.17;76.82;98771.88;4936672;29;20462;-83
2022/10/04 02:59:29;;;;;;;7.07;3.63;;;;;;;9.00;77.05;98889.00;4921445;29;20093;-81
2022/10/04 03:01:59;;;;;;;7.20;3.47;;;;;;;8.82;77.13;98878.06;4934417;29;20043;-82
2022/10/04 03:04:36;;;;;;;7.47;3.25;;;;;;;8.88;77.02;98879.69;4922249;29;20050;-82
2022/10/04 03:07:07;;;;;;;9.68;3.53;;;;;;;8.96;77.33;98895.97;4927695;29;20759;-84
2022/10/04 03:09:36;;;;;;;4.93;3.20;;;;;;;8.83;77.64;98865.94;4941351;29;20034;-83
2022/10/04 03:12:03;;;;;;;6.60;3.60;;;;;;;8.32;77.61;98786.34;4946955;29;20036;-82
2022/10/04 03:14:31;;;;;;;5.53;3.53;;;;;;;8.94;77.79;98902.06;4941940;29;20403;-82
2022/10/04 03:17:02;;;;;;;6.32;3.42;;;;;;;8.04;77.79;98764.31;4942933;29;20044;-81
2022/10/04 03:19:31;;;;;;;5.03;3.45;;;;;;;8.52;77.97;98825.78;4934384;29;20134;-81
2022/10/04 03:22:02;;;;;;;5.47;3.47;;;;;;;8.92;77.63;98893.44;4917264;29;20114;-83
2022/10/04 03:24:45;;;;;;;10.25;4.50;;;;;;;8.70;77.44;98866.16;4934146;29;20039;-83
2022/10/04 03:27:18;;;;;;;7.35;3.15;;;;;;;8.94;77.59;98895.13;4947681;29;20062;-82
2022/10/04 03:29:45;;;;;;;8.10;3.83;;;;;;;8.96;77.62;98911.53;4945001;29;20043;-82
2022/10/04 03:32:17;;;;;;;5.30;3.33;;;;;;;8.43;77.84;98819.00;4938228;29;20098;-83
2022/10/04 03:35:27;;;;;;;5.55;3.55;;;;;;;8.77;78.12;98887.66;4917657;29;20138;-83
2022/10/04 03:37:55;;;;;;;6.22;3.30;;;;;;;8.55;78.08;98835.25;4948407;29;20078;-82
2022/10/04 03:40:26;;;;;;;7.15;3.30;;;;;;;8.78;77.98;98920.50;4927757;29;20130;-83
2022/10/04 03:42:53;;;;;;;7.57;3.70;;;;;;;8.46;78.07;98825.84;4922104;29;20487;-82
2022/10/04 03:45:22;;;;;;;6.53;3.63;;;;;;;8.99;77.98;98906.28;4942199;29;20484;-85
2022/10/04 03:47:52;;;;;;;5.78;4.00;;;;;;;9.01;78.10;98908.88;4932066;29;20125;-84
2022/10/04 03:50:20;;;;;;;5.32;3.25;;;;;;;8.26;77.84;98793.31;4930365;29;20134;-84
2022/10/04 03:52:51;;;;;;;7.55;3.17;;;;;;;8.69;77.98;98868.75;4931138;29;20051;-82
2022/10/04 03:55:18;;;;;;;9.68;3.30;;;;;;;8.84;77.78;98875.44;4916147;29;20039;-83
2022/10/04 03:57:47;;;;;;;5.32;3.80;;;;;;;8.36;78.18;98790.59;4932307;29;20047;-81
2022/10/04 04:00:16;;;;;;;5.15;2.95;;;;;;;8.13;77.81;98771.91;4926187;29;20047;-81
2022/10/04 04:02:45;;;;;;;6.45;3.00;;;;;;;9.22;78.36;98910.25;4928287;29;20161;-81
2022/10/04 04:05:34;;;;;;;4.18;2.80;;;;;;;9.31;77.81;98909.22;4929906;29;20051;-82
2022/10/04 04:08:15;;;;;;;5.30;3.22;;;;;;;9.40;77.95;98918.56;4920136;29;20043;-81
2022/10/04 04:10:53;;;;;;;7.07;3.33;;;;;;;9.48;77.70;98922.78;4905069;29;20066;-83
2022/10/04 04:13:49;;;;;;;5.13;2.90;;;;;;;9.12;77.76;98843.81;4951323;29;20533;-82
2022/10/04 04:16:25;;;;;;;5.97;2.78;;;;;;;9.11;77.65;98844.69;4918862;29;21363;-82
2022/10/04 04:19:21;;;;;;;5.82;3.17;;;;;;;9.37;77.42;98867.56;4939217;29;20043;-83
2022/10/04 04:21:48;;;;;;;4.90;3.05;;;;;;;9.40;77.23;98872.72;4928158;29;20067;-82
2022/10/04 04:24:28;;;;;;;6.90;3.00;;;;;;;9.44;77.29;98910.72;4939697;29;20085;-83
2022/10/04 04:27:02;;;;;;;4.00;2.88;;;;;;;9.48;77.17;98938.34;4934951;29;20039;-81
2022/10/04 04:29:35;;;;;;;5.15;2.90;;;;;;;9.49;77.02;98939.19;4952069;29;20050;-81
2022/10/04 04:32:19;;;;;;;4.93;3.03;;;;;;;9.43;77.05;98937.56;4951550;29;20039;-83
2022/10/04 04:34:59;;;;;;;8.15;3.10;;;;;;;9.43;77.31;98942.78;4949552;29;20047;-83
2022/10/04 04:37:29;;;;;;;6.05;3.20;;;;;;;8.77;77.13;98837.50;4934628;29;20106;-84
2022/10/04 04:39:55;;;;;;;6.95;3.55;;;;;;;8.87;77.20;98847.69;4952890;29;20051;-82
2022/10/04 04:42:33;;;;;;;6.28;3.35;;;;;;;9.33;77.51;98918.72;4937688;29;20118;-83
2022/10/04 04:45:24;;;;;;;6.88;3.13;;;;;;;8.98;77.46;98876.03;4937409;29;20658;-81
2022/10/04 04:47:57;;;;;;;7.43;3.35;;;;;;;9.37;77.33;98929.03;4941006;29;20047;-81
2022/10/04 04:50:29;;;;;;;6.80;3.08;;;;;;;9.23;77.32;98909.34;4935528;29;20075;-80
2022/10/04 04:53:31;;;;;;;4.43;3.13;;;;;;;9.72;77.90;98962.13;4936745;29;20046;-81
2022/10/04 04:56:03;;;;;;;4.00;3.10;;;;;;;10.02;77.33;98914.81;4906013;29;20039;-82
2022/10/04 04:58:37;;;;;;;3.95;3.00;;;;;;;11.42;77.59;98938.50;4934735;29;20103;-83
2022/10/04 05:01:25;;;;;;;4.95;2.72;;;;;;;12.80;76.55;98908.47;4950486;29;20518;-83
2022/10/04 05:04:14;;;;;;;4.38;2.47;;;;;;;14.08;74.72;98933.75;4953938;29;20352;-84
2022/10/04 05:06:43;;;;;;;6.85;2.33;;;;;;;15.16;74.09;98911.22;4934479;29;20077;-81
2022/10/04 05:09:29;;;;;;;5.07;2.60;;;;;;;15.70;69.85;98917.69;4952078;29;20047;-82
2022/10/04 05:12:07;;;;;;;4.63;2.30;;;;;;;16.37;67.97;98928.69;4934256;29;20055;-84
2022/10/04 05:14:38;;;;;;;5.78;2.20;;;;;;;16.51;64.08;98901.78;4948782;29;20051;-83
2022/10/04 05:17:05;;;;;;;6.00;2.40;;;;;;;16.84;63.90;98901.06;4927103;29;20047;-81
2022/10/04 05:19:36;;;;;;;8.02;2.08;;;;;;;17.68;63.00;98900.38;4951193;28;20067;-83
2022/10/04 05:22:10;;;;;;;6.23;2.43;;;;;;;17.98;62.42;98852.34;4934267;29;20380;-82
2022/10/04 05:24:43;;;;;;;4.15;2.08;;;;;;;18.34;58.63;98909.16;4951636;29;20069;-80
2022/10/04 05:27:16;;;;;;;4.20;2.05;;;;;;;18.60;57.86;98925.31;4933661;29;20098;-83
2022/10/04 05:29:59;;;;;;;3.13;2.30;;;;;;;18.67;58.05;98928.44;4935046;29;20550;-81
2022/10/04 05:32:52;;;;;;;5.47;2.20;;;;;;;18.06;56.24;98951.94;4933134;29;20509;-84
2022/10/04 05:35:21;;;;;;;3.97;2.33;;;;;;;16.68;56.54;98908.84;4925557;29;21155;-83
2022/10/04 05:37:54;;;;;;;4.38;2.40;;;;;;;16.26;55.98;98972.03;4910117;29;20138;-82
2022/10/04 05:40:45;;;;;;;5.25;2.50;;;;;;;16.11;58.57;98983.22;4949493;29;20166;-80
2022/10/04 05:43:42;;;;;;;4.63;2.58;;;;;;;14.73;57.41;98847.50;4914838;29;20035;-84
2022/10/04 05:46:21;;;;;;;7.25;2.65;;;;;;;15.12;59.62;98940.19;4934190;29;20051;-83
2022/10/04 05:49:11;;;;;;;3.20;2.40;;;;;;;16.71;59.67;98934.97;4952797;29;20067;-81
2022/10/04 05:51:54;;;;;;;3.85;2.15;;;;;;;17.04;57.96;98936.91;4918491;29;20407;-81
2022/10/04 05:54:25;;;;;;;5.55;2.40;;;;;;;17.16;57.70;98938.09;4952415;29;20522;-81
2022/10/04 05:57:16;;;;;;;2.30;2.10;;;;;;;18.32;56.22;98934.75;4954095;29;20039;-82
2022/10/04 06:00:06;;;;;;;3.40;2.22;;;;;;;19.44;53.75;98931.09;4936849;29;20035;-83
2022/10/04 06:03:05;;;;;;;3.00;2.10;;;;;;;19.59;51.35;98936.38;4941279;29;20047;-83
2022/10/04 06:05:48;;;;;;;2.38;2.17;;;;;;;17.82;52.58;98835.66;4959427;29;20063;-82
2022/10/04 06:08:50;;;;;;;3.85;2.35;;;;;;;17.39;52.29;98857.19;4913774;29;20047;-82
2022/10/04 06:11:16;;;;;;;;;;;;;;;17.78;52.56;98990.19;4902681;29;20062;-83
2022/10/04 06:14:09;;;;;;;4.03;2.30;;;;;;;17.54;52.38;98963.38;4917448;29;20302;-84
2022/10/04 06:17:20;;;;;;;5.30;2.17;;;;;;;17.92;54.14;98963.16;4951720;29;20035;-83
2022/10/04 06:19:51;;;;;;;5.85;2.80;;;;;;;17.34;53.04;98970.47;4905031;29;20481;-82
2022/10/04 06:22:19;;;;;;;10.48;2.33;;;;;;;16.71;53.54;98987.50;4941237;29;20047;-83
2022/10/04 06:24:50;;;;;;;4.22;2.20;;;;;;;16.47;54.02;98947.50;4958546;29;20057;-81
2022/10/04 06:27:28;;;;;;;4.50;2.30;;;;;;;16.00;54.26;98978.47;4934450;29;20038;-83
2022/10/04 06:30:01;;;;;;;4.78;2.45;;;;;;;15.66;54.94;98983.38;4950488;28;20105;-82
2022/10/04 06:32:48;;;;;;;4.35;2.40;;;;;;;15.91;54.62;98992.84;4948412;29;20146;-83
2022/10/04 06:35:20;;;;;;;5.78;2.10;;;;;;;16.46;55.86;98978.13;4941768;29;20511;-85
2022/10/04 06:38:23;;;;;;;3.80;2.35;;;;;;;16.58;54.24;98983.75;4927250;29;20034;-80
2022/10/04 06:41:27;;;;;;;6.05;2.22;;;;;;;15.84;53.70;98995.75;4939485;29;20062;-82
2022/10/04 06:44:19;;;;;;;3.17;2.25;;;;;;;15.14;55.04;98969.81;4968445;29;20047;-81
2022/10/04 06:46:49;;;;;;;3.42;2.40;;;;;;;15.04;54.77;99004.25;4951369;29;20091;-84
2022/10/04 06:50:06;;;;;;;2.85;2.25;;;;;;;15.86;56.07;98983.47;4967852;29;20054;-85
2022/10/04 06:52:34;;;;;;;5.22;2.00;;;;;;;15.95;54.41;98993.53;4886236;29;20067;-83
2022/10/04 06:55:29;;;;;;;4.07;2.40;;;;;;;16.03;54.52;99007.19;4956607;29;20060;-82
2022/10/04 06:58:07;;;;;;;6.10;2.20;;;;;;;16.50;53.72;98974.44;4938262;29;20066;-82
2022/10/04 07:00:51;;;;;;;3.25;1.88;;;;;;;16.38;53.95;98994.25;4966785;29;20035;-82
2022/10/04 07:03:44;;;;;;;6.97;4.50;;;;;;;17.05;54.38;98971.91;4963304;29;20769;-81
2022/10/04 07:10:54;;;;;;;5.28;2.35;;;;;;;18.59;51.65;99007.91;4924789;28;20043;-82
2022/10/04 07:13:26;;;;;;;2.30;1.75;;;;;;;19.35;50.00;99011.63;4935131;29;20059;-83
2022/10/04 07:16:12;;;;;;;4.30;2.10;;;;;;;19.74;50.09;98974.22;4955797;29;20074;-82
2022/10/04 07:19:00;;;;;;;6.45;2.00;;;;;;;20.47;47.56;98995.28;4952862;29;20043;-80
2022/10/04 07:21:51;;;;;;;2.42;1.88;;;;;;;20.46;46.55;98975.09;4931687;29;20032;-84
2022/10/04 07:24:31;;;;;;;2.22;1.65;;;;;;;19.69;46.24;98966.56;4926365;29;20071;-82
2022/10/04 07:27:00;;;;;;;2.05;1.85;;;;;;;19.31;47.59;98940.69;4931809;29;20043;-82
2022/10/04 07:29:30;;;;;;;3.42;1.90;;;;;;;19.08;46.36;98908.59;4961194;29;20057;-85
2022/10/04 07:32:22;;;;;;;2.13;1.60;;;;;;;19.63;47.48;98928.22;4930752;29;20043;-82
2022/10/04 07:35:04;;;;;;;;;;;;;;;20.92;46.59;98983.69;4951702;29;20058;-81
2022/10/04 07:37:46;;;;;;;4.47;1.98;;;;;;;21.60;43.95;98936.88;4954238;29;19934;-81
2022/10/04 07:40:35;;;;;;;2.03;1.55;;;;;;;22.86;42.88;98942.19;4933222;29;20043;-81
2022/10/04 07:43:12;;;;;;;3.60;1.92;;;;;;;23.20;39.36;98936.16;4930161;29;20515;-82
2022/10/04 07:45:40;;;;;;;4.32;1.63;;;;;;;24.01;38.17;98946.88;4933097;29;20051;-83
2022/10/04 07:48:16;;;;;;;4.15;1.70;;;;;;;23.46;36.86;98959.94;4932472;29;20086;-83
2022/10/04 07:51:17;;;;;;;4.60;1.50;;;;;;;23.45;38.44;98921.06;4935315;29;20051;-83
2022/10/04 07:53:50;;;;;;;1.97;1.60;;;;;;;22.67;37.57;98895.00;4918877;29;20491;-83
2022/10/04 07:56:25;;;;;;;2.95;1.70;;;;;;;23.58;38.53;98947.53;4943032;29;20390;-83
2022/10/04 07:59:12;;;;;;;4.13;1.50;;;;;;;24.69;36.80;98955.75;4901073;29;20040;-83
2022/10/04 08:01:51;;;;;;;1.83;1.65;;;;;;;23.77;35.46;98918.59;4945408;29;20045;-82
2022/10/04 08:04:43;;;;;;;2.47;1.92;;;;;;;23.34;35.99;98947.59;4925078;29;20043;-82
2022/10/04 08:07:55;;;;;;;1.85;1.70;;;;;;;22.45;36.60;98906.31;4917577;29;20044;-81
2022/10/04 08:10:46;;;;;;;3.45;1.65;;;;;;;23.58;36.47;98923.63;4933291;29;20495;-82
2022/10/04 08:13:44;;;;;;;2.83;1.38;;;;;;;23.78;34.46;98924.75;4923951;29;20134;-83
2022/10/04 08:16:33;;;;;;;3.25;1.60;;;;;;;24.03;34.08;98952.94;4904430;29;20035;-81
2022/10/04 08:19:22;;;;;;;1.55;1.45;;;;;;;23.09;36.13;98971.47;4947128;29;20114;-82
2022/10/04 08:22:03;;;;;;;2.65;1.52;;;;;;;22.10;35.34;98984.66;4934368;29;20514;-82
2022/10/04 08:24:50;;;;;;;4.80;1.80;;;;;;;21.64;37.03;98943.69;4933596;29;20043;-83
2022/10/04 08:27:29;;;;;;;2.65;1.63;;;;;;;20.88;38.31;98976.91;4933654;29;20083;-83
2022/10/04 08:30:15;;;;;;;3.38;1.63;;;;;;;20.26;39.12;98942.00;4934319;29;20517;-84
2022/10/04 08:33:05;;;;;;;2.80;2.00;;;;;;;20.14;39.79;98982.38;4898126;29;20039;-83
2022/10/04 08:36:02;;;;;;;2.05;1.52;;;;;;;19.32;41.79;98984.56;4950074;29;20047;-83
2022/10/04 08:38:58;;;;;;;4.28;1.50;;;;;;;19.01;41.50;98938.88;4911165;29;20042;-84
2022/10/04 08:42:03;;;;;;;2.25;1.83;;;;;;;19.14;41.67;98970.66;4934140;29;20043;-83
2022/10/04 08:44:59;;;;;;;2.70;1.80;;;;;;;18.82;42.34;98993.44;4950546;29;20405;-81
2022/10/04 08:47:53;;;;;;;2.70;1.70;;;;;;;18.35;42.90;98989.88;4902579;29;20035;-82
2022/10/04 08:50:47;;;;;;;2.20;1.67;;;;;;;17.83;44.12;99032.06;4910011;29;20130;-82
2022/10/04 08:53:41;;;;;;;2.17;1.83;;;;;;;17.31;44.99;98997.78;4909874;29;20562;-81
2022/10/04 08:56:59;;;;;;;2.47;1.75;;;;;;;17.20;45.52;98999.22;4918390;29;20107;-81
2022/10/04 08:59:50;;;;;;;3.33;1.88;;;;;;;16.89;46.49;99011.19;4919569;29;20042;-83
2022/10/04 09:02:45;;;;;;;7.63;1.80;;;;;;;16.82;46.94;99008.88;4955309;29;20043;-82
2022/10/04 09:05:32;;;;;;;5.28;1.70;;;;;;;16.45;47.22;99001.84;4952170;29;20047;-83
2022/10/04 09:08:33;;;;;;;2.53;1.88;;;;;;;16.24;47.41;98987.00;4935434;29;20569;-84
2022/10/04 09:11:35;;;;;;;3.00;1.83;;;;;;;16.51;47.85;98985.81;4933723;29;20043;-79
2022/10/04 09:14:26;;;;;;;2.72;1.90;;;;;;;17.28;47.69;98995.31;4936264;29;20039;-82
2022/10/04 09:17:04;;;;;;;2.53;1.55;;;;;;;18.76;46.18;98998.22;4935573;29;20371;-82
2022/10/04 09:20:00;;;;;;;6.07;1.77;;;;;;;19.98;45.33;98925.25;4903194;29;20180;-82
2022/10/04 09:22:48;;;;;;;2.58;1.65;;;;;;;21.65;41.39;98963.03;4937407;29;20039;-83
2022/10/04 09:37:28;;;;;;;3.05;1.90;;;;;;;19.47;38.90;98952.03;5016908;28;21270;-83
2022/10/04 09:44:01;;;;;;;4.82;2.15;;;;;;;18.11;41.70;99017.50;5026377;28;20049;-83
2022/10/04 09:46:54;;;;;;;4.97;1.95;;;;;;;17.66;43.07;98975.91;4993448;28;20417;-82
2022/10/04 09:49:47;;;;;;;3.60;1.90;;;;;;;17.13;43.66;98989.00;5025539;28;20049;-83
2022/10/04 09:52:32;;;;;;;2.80;1.60;;;;;;;16.74;44.88;99003.13;5007011;28;20049;-82
2022/10/04 09:55:30;;;;;;;2.97;1.80;;;;;;;16.30;45.54;98919.41;5030780;28;20076;-83
2022/10/04 09:58:28;;;;;;;2.58;2.00;;;;;;;16.73;45.95;98982.19;5014631;28;20061;-81
2022/10/04 10:01:43;;;;;;;3.00;1.75;;;;;;;15.13;46.17;98790.81;5028337;28;20042;-82
2022/10/04 10:08:14;;;;;;;;;;;;;;;16.27;47.20;98981.59;5026044;28;20146;-83
2022/10/04 10:14:20;;;;;;;5.57;1.70;;;;;;;15.40;47.11;98814.09;5028403;28;20525;-82
2022/10/04 10:17:22;;;;;;;3.92;1.40;;;;;;;16.50;47.04;99037.47;5027055;28;20033;-83
2022/10/04 10:20:25;;;;;;;3.17;1.83;;;;;;;16.31;46.99;98981.47;5011289;28;20127;-82
2022/10/04 10:23:06;;;;;;;6.15;2.20;;;;;;;16.16;47.28;98967.25;5015928;28;20049;-82
2022/10/04 10:26:22;;;;;;;;;;;;;;;;;;;;;
2022/10/04 10:46:38;;;;;;;4.45;3.17;;;;;;;12.73;57.67;99063.56;4920240;27;5106912;-84
2022/10/04 10:49:16;;;;;;;9.32;3.60;;;;;;;11.94;61.01;99091.75;5119697;28;20058;-81
2022/10/04 10:52:17;;;;;;;11.40;3.50;;;;;;;11.30;62.88;99072.47;5115128;28;20035;-81
2022/10/04 10:55:29;;;;;;;6.65;3.17;;;;;;;11.15;64.84;99117.97;5100589;28;20311;-79
2022/10/04 10:58:08;;;;;;;4.93;3.23;;;;;;;10.97;66.11;99138.28;5110685;28;20097;-81
2022/10/04 11:00:53;;;;;;;6.97;2.33;;;;;;;10.79;66.55;99134.31;5108169;28;20321;-82
2022/10/04 11:03:45;;;;;;;2.95;1.50;;;;;;;10.50;67.25;99153.94;5097455;28;20144;-83
2022/10/04 11:06:52;;;;;;;3.95;1.70;;;;;;;10.55;68.36;99128.72;5094369;28;20077;-81
2022/10/04 11:09:44;;;;;;;2.28;1.70;;;;;;;10.55;69.23;99131.31;5085598;28;20040;-82
2022/10/04 11:12:51;;;;;;;4.30;2.20;;;;;;;10.64;69.54;99147.66;5093061;28;20078;-82
2022/10/04 11:15:51;;;;;;;3.17;1.50;;;;;;;10.30;69.49;99162.09;5095342;28;20036;-83
2022/10/04 11:18:35;;;;;;;1.53;0.93;;;;;;;9.95;69.84;99171.34;5095319;28;20046;-81
2022/10/04 11:21:07;;;;;;;1.83;1.10;;;;;;;9.76;70.79;99183.78;5097672;28;20036;-81
2022/10/04 11:24:19;;;;;;;2.03;0.90;;;;;;;9.49;70.90;99189.34;5093386;28;20051;-81
2022/10/04 11:27:09;;;;;;;1.20;1.00;;;;;;;9.26;71.77;99194.88;5098397;28;20036;-83
2022/10/04 11:29:57;;;;;;;2.40;1.10;;;;;;;9.08;72.57;99170.00;5095764;28;20063;-81
2022/10/04 11:33:08;;;;;;;1.00;0.90;;;;;;;9.04;73.14;99158.81;5121684;28;20057;-82
2022/10/04 11:35:49;;;;;;;0.80;0.80;;;;;;;9.04;73.19;99164.00;5093914;28;20035;-81
2022/10/04 11:38:50;;;;;;;2.17;0.90;;;;;;;9.11;73.35;99176.91;5079468;28;20047;-83
2022/10/04 11:41:38;;;;;;;1.25;0.82;;;;;;;9.18;73.95;99194.09;5076603;28;20414;-81
2022/10/04 11:44:46;;;;;;;1.92;0.70;;;;;;;9.18;74.22;99175.94;5077920;28;20066;-83
2022/10/04 11:47:47;;;;;;;2.30;0.70;;;;;;;9.08;74.17;99171.75;5099991;28;20138;-81
2022/10/04 11:50:37;;;;;;;1.50;0.60;;;;;;;9.11;74.74;99195.09;5075989;28;20047;-84
2022/10/04 11:53:30;;;;;;;1.90;0.70;;;;;;;8.60;74.97;99113.53;5073890;28;20575;-85
2022/10/04 11:56:28;;;;;;;1.00;0.73;;;;;;;9.10;75.23;99164.81;5064499;28;20424;-81
2022/10/04 11:58:58;;;;;;;2.00;0.88;;;;;;;9.36;75.67;99198.22;5084638;28;20465;-81
2022/10/04 12:01:58;;;;;;;1.40;0.80;;;;;;;9.37;75.47;99160.13;5085745;28;20162;-83
2022/10/04 12:05:02;;;;;;;1.30;0.90;;;;;;;9.57;75.64;99194.47;5052836;28;20344;-81
2022/10/04 12:07:48;;;;;;;0.95;0.80;;;;;;;9.73;76.04;99191.63;5086915;28;20058;-83
2022/10/04 12:10:27;;;;;;;3.03;0.82;;;;;;;9.62;75.58;99156.28;5071491;28;20044;-82
2022/10/04 12:13:08;;;;;;;0.70;0.70;;;;;;;9.59;75.58;99158.94;5086535;28;20122;-82
2022/10/04 12:15:58;;;;;;;1.42;0.80;;;;;;;9.73;75.87;99202.88;5086070;28;20040;-82
2022/10/04 12:18:48;;;;;;;0.70;0.70;;;;;;;9.74;75.67;99211.53;5084232;28;20040;-82
2022/10/04 12:21:34;;;;;;;1.25;0.80;;;;;;;9.74;76.05;99209.78;5084263;28;20044;-82
2022/10/04 12:24:13;;;;;;;2.63;0.70;;;;;;;9.69;76.08;99222.00;5084496;28;20538;-81
2022/10/04 12:26:48;;;;;;;;;;;;;;;9.51;75.90;99217.91;5086677;28;20048;-82
2022/10/04 12:29:43;;;;;;;1.70;0.80;;;;;;;9.49;76.54;99225.72;5090223;28;19915;-81
2022/10/04 12:32:26;;;;;;;1.17;0.77;;;;;;;9.57;76.20;99237.75;5100931;28;20102;-81
2022/10/04 12:34:54;;;;;;;0.70;0.70;;;;;;;9.56;76.29;99236.91;5102653;28;20085;-82
2022/10/04 12:37:40;;;;;;;0.60;0.55;;;;;;;9.49;76.30;99241.31;5094975;28;20505;-82
2022/10/04 12:40:24;;;;;;;1.55;1.38;;;;;;;9.53;76.21;99262.03;5078217;28;20074;-83
2022/10/04 12:43:14;;;;;;;0.75;0.60;;;;;;;9.49;76.37;99249.09;5070629;28;20115;-81
2022/10/04 12:46:07;;;;;;;1.05;0.60;;;;;;;9.42;76.26;99244.00;5086961;28;20087;-82
2022/10/04 12:49:02;;;;;;;0.60;0.50;;;;;;;9.51;76.14;99241.28;5054520;28;20035;-82
2022/10/04 12:52:03;;;;;;;0.70;0.60;;;;;;;9.56;76.66;99252.50;5075259;28;20032;-81
2022/10/04 12:55:07;;;;;;;1.20;0.82;;;;;;;9.58;76.52;99250.72;5101199;28;20071;-82
2022/10/04 12:57:51;;;;;;;0.73;0.60;;;;;;;9.52;76.18;99269.00;5089238;28;20028;-82
2022/10/04 13:00:23;;;;;;;1.00;0.60;;;;;;;9.45;76.01;99272.53;5078342;28;20048;-82
2022/10/04 13:03:17;;;;;;;2.25;0.70;;;;;;;8.92;76.16;99197.03;5055284;28;20153;-83
2022/10/04 13:05:47;;;;;;;2.90;0.70;;;;;;;9.38;75.76;99261.38;5054874;28;20044;-81
2022/10/04 13:08:29;;;;;;;0.57;0.57;;;;;;;9.42;76.33;99259.59;5069193;28;20040;-82
2022/10/04 13:11:20;;;;;;;1.10;0.80;;;;;;;9.54;75.86;99254.25;5067870;28;20116;-82
2022/10/04 13:13:55;;;;;;;0.50;0.50;;;;;;;9.60;75.77;99264.53;5054507;28;20040;-81
2022/10/04 13:17:03;;;;;;;0.70;0.60;;;;;;;9.62;75.76;99269.72;5096750;28;20124;-84
2022/10/04 13:20:00;;;;;;;1.02;0.50;;;;;;;9.59;75.20;99268.03;5101437;28;20045;-83
2022/10/04 13:22:44;;;;;;;0.65;0.50;;;;;;;9.17;75.56;99203.66;5058164;28;20040;-84
2022/10/04 13:25:34;;;;;;;0.60;0.50;;;;;;;9.52;74.90;99269.00;5089334;28;20036;-82
2022/10/04 13:28:22;;;;;;;0.50;0.50;;;;;;;9.28;75.18;99241.56;5090880;28;20044;-83
2022/10/04 13:30:58;;;;;;;0.55;0.55;;;;;;;9.45;75.13;99263.03;5087910;28;20036;-83
2022/10/04 13:33:54;;;;;;;1.25;0.60;;;;;;;9.44;75.30;99255.22;5069852;28;20047;-84
2022/10/04 13:36:56;;;;;;;0.50;0.50;;;;;;;9.24;75.24;99221.75;5046870;28;20182;-83
2022/10/04 13:39:54;;;;;;;0.90;0.50;;;;;;;9.50;74.99;99257.75;5052877;28;20087;-83